Time;durP1;ratioP1;P1;durP2;ratioP2;P2;SDS_P1;SDS_P2;PMS_P1;PMS_P2;Temp;Humidity;BMP_temperature;BMP_pressure;BME280_temperature;BME280_humidity;BME280_pressure;Samples;Min_cycle;Max_cycle;Signal;HPM_P1;HPM_P2
2022/01/01 01:04:14;;;;;;;12.98;6.75;;;;;;;;;;6137317;23;20021;-91
2022/01/01 01:06:39;;;;;;;9.68;6.43;;;;;;;;;;6157941;23;20010;-89
2022/01/01 01:09:05;;;;;;;11.50;7.35;;;;;;;;;;6157467;23;20001;-88
2022/01/01 01:11:31;;;;;;;9.18;5.40;;;;;;;;;;6160834;23;20064;-87
2022/01/01 06:41:24;;;;;;;16.33;7.03;;;;;;;;;;6196321;22;19915;-87
2022/01/01 06:43:50;;;;;;;7.88;4.28;;;;;;;;;;6223672;23;20016;-83
2022/01/01 06:46:16;;;;;;;7.85;4.47;;;;;;;;;;6221776;23;20446;-87
2022/01/01 06:48:41;;;;;;;8.70;5.10;;;;;;;;;;6221314;23;20419;-87
2022/01/01 06:51:06;;;;;;;8.65;5.20;;;;;;;;;;6248576;23;20004;-89
2022/01/01 06:53:32;;;;;;;5.20;3.97;;;;;;;;;;6221950;23;20461;-85
2022/01/01 06:55:59;;;;;;;9.30;4.88;;;;;;;;;;6248165;23;20029;-84
2022/01/01 06:58:24;;;;;;;7.30;3.80;;;;;;;;;;6248516;23;20004;-83
2022/01/01 07:00:50;;;;;;;6.15;3.67;;;;;;;;;;6221673;23;20024;-85
2022/01/01 07:03:22;;;;;;;4.55;3.40;;;;;;;;;;6248965;23;20000;-91
2022/01/01 07:05:47;;;;;;;6.07;3.97;;;;;;;;;;6248552;23;20080;-85
2022/01/01 07:08:12;;;;;;;8.43;4.32;;;;;;;;;;6248286;23;20323;-86
2022/01/01 07:10:39;;;;;;;5.43;3.95;;;;;;;;;;6247599;23;20374;-87
2022/01/01 07:13:04;;;;;;;5.15;3.90;;;;;;;;;;6220893;23;20035;-84
2022/01/01 07:15:29;;;;;;;5.50;4.18;;;;;;;;;;6247469;23;20003;-84
2022/01/01 07:17:55;;;;;;;6.18;4.18;;;;;;;;;;6247937;23;20411;-87
2022/01/01 07:20:20;;;;;;;6.00;4.47;;;;;;;;;;6247567;23;20000;-84
2022/01/01 07:22:46;;;;;;;4.68;3.20;;;;;;;;;;6247262;23;20004;-84
2022/01/01 07:25:13;;;;;;;4.45;3.10;;;;;;;;;;6247540;23;20009;-84
2022/01/01 07:27:39;;;;;;;4.30;2.95;;;;;;;;;;6220779;23;20378;-90
2022/01/01 07:30:06;;;;;;;4.32;3.20;;;;;;;;;;6248184;23;20491;-85
2022/01/01 07:32:31;;;;;;;3.95;3.38;;;;;;;;;;6247149;23;20008;-86
2022/01/01 09:39:31;;;;;;;6.72;5.40;;;;;;;;;;6239836;23;20439;-83
2022/01/01 09:41:57;;;;;;;6.78;5.50;;;;;;;;;;6246109;23;20195;-82
2022/01/01 09:44:23;;;;;;;8.77;5.10;;;;;;;;;;6245898;23;20000;-83
2022/01/01 09:46:50;;;;;;;8.88;5.57;;;;;;;;;;6245877;23;20000;-82
2022/01/01 09:49:17;;;;;;;7.70;5.55;;;;;;;;;;6245952;23;20004;-82
2022/01/01 09:51:43;;;;;;;7.63;5.35;;;;;;;;;;6247481;23;20007;-82
2022/01/01 09:54:09;;;;;;;7.65;5.25;;;;;;;;;;6248263;23;20004;-85
2022/01/01 09:56:35;;;;;;;7.03;5.20;;;;;;;;;;6247884;23;20027;-84
2022/01/01 09:59:00;;;;;;;8.48;5.50;;;;;;;;;;6247924;23;20066;-83
2022/01/01 10:01:26;;;;;;;8.88;6.07;;;;;;;;;;6248027;23;20012;-84
2022/01/01 10:03:53;;;;;;;8.65;6.53;;;;;;;;;;6248464;23;20007;-85
2022/01/01 10:06:22;;;;;;;9.15;7.15;;;;;;;;;;6247707;23;20023;-81
2022/01/01 10:08:49;;;;;;;7.35;6.25;;;;;;;;;;6248000;23;20011;-84
2022/01/01 10:11:18;;;;;;;8.35;5.10;;;;;;;;;;6247641;23;20012;-84
2022/01/01 10:13:45;;;;;;;6.05;5.28;;;;;;;;;;6247722;23;20000;-85
2022/01/01 10:16:11;;;;;;;6.72;6.03;;;;;;;;;;6220760;23;20008;-85
2022/01/01 10:18:39;;;;;;;6.47;5.80;;;;;;;;;;6247850;23;20030;-85
2022/01/01 10:21:08;;;;;;;6.82;5.97;;;;;;;;;;6247823;23;20054;-84
2022/01/01 10:23:35;;;;;;;8.40;7.63;;;;;;;;;;6247694;23;20523;-85
2022/01/01 10:28:59;;;;;;;8.65;7.85;;;;;;;;;;6248072;23;20011;-85
2022/01/01 10:31:24;;;;;;;8.00;6.90;;;;;;;;;;6247910;23;20015;-84
2022/01/01 10:33:50;;;;;;;7.50;6.70;;;;;;;;;;6247626;23;20319;-87
2022/01/01 10:36:20;;;;;;;7.32;6.57;;;;;;;;;;6247967;23;20000;-86
2022/01/01 10:38:46;;;;;;;6.50;5.90;;;;;;;;;;6247494;23;20000;-85
2022/01/01 10:41:13;;;;;;;6.18;5.10;;;;;;;;;;6248189;23;20031;-84
2022/01/01 10:43:42;;;;;;;5.57;5.07;;;;;;;;;;6247572;23;20036;-84
2022/01/01 10:46:16;;;;;;;5.65;5.18;;;;;;;;;;6247554;23;20110;-84
2022/01/01 10:49:09;;;;;;;5.13;4.63;;;;;;;;;;6247803;23;20011;-84
2022/01/01 10:51:38;;;;;;;5.40;5.00;;;;;;;;;;6247718;23;20045;-83
2022/01/01 10:54:05;;;;;;;5.47;4.60;;;;;;;;;;6220834;23;20000;-83
2022/01/01 10:56:37;;;;;;;5.15;4.75;;;;;;;;;;6220475;23;20011;-86
2022/01/01 10:59:03;;;;;;;5.47;4.80;;;;;;;;;;6247331;23;20075;-85
2022/01/01 11:01:29;;;;;;;5.60;5.15;;;;;;;;;;6220056;23;20043;-85
2022/01/01 11:03:56;;;;;;;4.85;4.45;;;;;;;;;;6220406;23;20054;-86
2022/01/01 11:06:21;;;;;;;4.47;4.07;;;;;;;;;;6247268;23;20004;-85
2022/01/01 11:08:47;;;;;;;4.93;4.53;;;;;;;;;;6247398;23;20414;-85
2022/01/01 11:11:16;;;;;;;4.47;4.07;;;;;;;;;;6247375;23;20339;-85
2022/01/01 11:13:45;;;;;;;4.95;4.55;;;;;;;;;;6247360;23;20071;-84
2022/01/01 11:16:13;;;;;;;6.55;5.07;;;;;;;;;;6247292;23;20080;-86
2022/01/01 11:18:39;;;;;;;8.45;7.38;;;;;;;;;;6247262;23;20004;-86
2022/01/01 11:21:05;;;;;;;9.80;8.90;;;;;;;;;;6247714;23;20031;-86
2022/01/01 11:23:32;;;;;;;9.77;8.77;;;;;;;;;;6247557;23;20007;-85
2022/01/01 11:25:58;;;;;;;10.20;9.30;;;;;;;;;;6248774;23;20004;-83
2022/01/01 11:28:24;;;;;;;11.48;10.40;;;;;;;;;;6247206;23;20058;-85
2022/01/01 11:30:57;;;;;;;10.00;9.05;;;;;;;;;;6246831;23;20070;-84
2022/01/01 11:33:35;;;;;;;14.30;12.90;;;;;;;;;;6247270;23;20323;-84
2022/01/01 11:36:01;;;;;;;13.23;12.02;;;;;;;;;;6247054;23;19999;-84
2022/01/01 11:38:29;;;;;;;13.02;11.82;;;;;;;;;;6220454;23;20000;-84
2022/01/01 11:41:15;;;;;;;12.68;11.57;;;;;;;;;;6247064;23;20008;-84
2022/01/01 11:43:47;;;;;;;13.30;11.85;;;;;;;;;;6247387;23;20000;-84
2022/01/01 11:46:22;;;;;;;13.38;12.05;;;;;;;;;;6246806;23;20441;-84
2022/01/01 11:48:51;;;;;;;13.95;12.57;;;;;;;;;;6247010;23;20000;-84
2022/01/01 11:51:33;;;;;;;14.13;11.20;;;;;;;;;;6246744;23;20014;-84
2022/01/01 11:54:14;;;;;;;14.45;13.05;;;;;;;;;;6246907;23;19996;-86
2022/01/01 11:56:46;;;;;;;14.60;13.05;;;;;;;;;;6246601;23;20057;-83
2022/01/01 11:59:20;;;;;;;17.38;15.52;;;;;;;;;;6246993;23;20082;-84
2022/01/01 12:01:47;;;;;;;16.65;14.95;;;;;;;;;;6247057;23;19996;-82
2022/01/01 12:04:42;;;;;;;17.25;15.55;;;;;;;;;;6246638;23;20000;-83
2022/01/01 12:07:16;;;;;;;16.75;15.05;;;;;;;;;;6222179;23;20079;-83
2022/01/01 12:10:07;;;;;;;18.33;16.35;;;;;;;;;;6246788;23;20004;-84
2022/01/01 12:12:42;;;;;;;18.08;16.05;;;;;;;;;;6247302;23;20070;-84
2022/01/01 12:15:26;;;;;;;16.95;15.23;;;;;;;;;;6246482;23;20004;-84
2022/01/01 12:18:01;;;;;;;18.35;16.48;;;;;;;;;;6246927;23;20435;-84
2022/01/01 12:20:38;;;;;;;20.50;18.27;;;;;;;;;;6246682;23;20000;-84
2022/01/01 12:23:07;;;;;;;18.08;16.38;;;;;;;;;;6246339;23;20339;-82
2022/01/01 12:25:34;;;;;;;19.60;17.60;;;;;;;;;;6247086;23;20054;-82
2022/01/01 12:28:07;;;;;;;20.70;18.60;;;;;;;;;;6220130;23;20010;-82
2022/01/01 12:30:42;;;;;;;19.08;16.88;;;;;;;;;;6246923;23;20008;-83
2022/01/01 12:33:11;;;;;;;21.15;18.95;;;;;;;;;;6219759;23;19996;-85
2022/01/01 12:35:44;;;;;;;22.63;20.15;;;;;;;;;;6246940;23;20004;-83
2022/01/01 12:38:16;;;;;;;20.98;18.23;;;;;;;;;;6247263;23;20020;-84
2022/01/01 12:41:13;;;;;;;22.02;18.83;;;;;;;;;;6246471;23;20043;-83
2022/01/01 12:43:57;;;;;;;25.00;19.08;;;;;;;;;;6246565;23;20000;-83
2022/01/01 12:46:34;;;;;;;22.23;18.77;;;;;;;;;;6246551;23;20008;-83
2022/01/01 12:49:05;;;;;;;22.52;17.67;;;;;;;;;;6246713;23;20035;-84
2022/01/01 12:51:37;;;;;;;23.95;19.00;;;;;;;;;;6246279;23;20011;-81
2022/01/01 12:54:14;;;;;;;23.90;19.50;;;;;;;;;;6219933;23;20014;-83
2022/01/01 12:56:43;;;;;;;27.02;20.85;;;;;;;;;;6246416;23;20477;-83
2022/01/01 12:59:10;;;;;;;25.48;20.48;;;;;;;;;;6219344;23;20007;-82
2022/01/01 13:01:38;;;;;;;25.55;20.42;;;;;;;;;;6246493;23;20004;-83
2022/01/01 13:04:08;;;;;;;22.52;19.05;;;;;;;;;;6246555;23;20087;-83
2022/01/01 13:06:42;;;;;;;23.17;19.23;;;;;;;;;;6246251;23;20004;-84
2022/01/01 13:09:07;;;;;;;26.20;20.63;;;;;;;;;;6246361;23;20004;-83
2022/01/01 13:11:34;;;;;;;27.73;20.90;;;;;;;;;;6246314;23;20131;-83
2022/01/01 13:14:00;;;;;;;27.50;20.52;;;;;;;;;;6246539;23;20000;-83
2022/01/01 13:16:27;;;;;;;25.95;21.10;;;;;;;;;;6246219;23;20033;-82
2022/01/01 13:18:52;;;;;;;34.45;25.80;;;;;;;;;;6219600;23;20027;-82
2022/01/01 13:21:19;;;;;;;30.33;23.63;;;;;;;;;;6246331;23;20458;-83
2022/01/01 13:23:44;;;;;;;32.42;25.70;;;;;;;;;;6246660;23;20008;-82
2022/01/01 13:26:10;;;;;;;26.63;21.70;;;;;;;;;;6248313;23;20063;-82
2022/01/01 13:28:36;;;;;;;27.40;22.55;;;;;;;;;;6248519;23;20046;-84
2022/01/01 13:31:06;;;;;;;25.92;20.85;;;;;;;;;;6248634;23;20008;-82
2022/01/01 13:33:34;;;;;;;27.45;22.48;;;;;;;;;;6248312;23;20004;-83
2022/01/01 13:36:05;;;;;;;36.08;28.13;;;;;;;;;;6248225;23;19996;-82
2022/01/01 13:38:32;;;;;;;32.20;25.92;;;;;;;;;;6248386;23;20046;-82
2022/01/01 13:41:00;;;;;;;30.00;24.50;;;;;;;;;;6248179;23;20497;-83
2022/01/01 13:43:28;;;;;;;30.85;22.67;;;;;;;;;;6221306;23;20427;-83
2022/01/01 13:46:25;;;;;;;27.95;21.88;;;;;;;;;;6248172;23;20055;-83
2022/01/01 13:48:51;;;;;;;27.58;21.90;;;;;;;;;;6248230;23;19996;-82
2022/01/01 13:51:20;;;;;;;29.55;22.20;;;;;;;;;;6221140;23;20011;-82
2022/01/01 13:53:46;;;;;;;27.70;22.02;;;;;;;;;;6248658;23;20012;-82
2022/01/01 13:56:14;;;;;;;28.00;21.17;;;;;;;;;;6248189;23;20089;-81
2022/01/01 13:58:41;;;;;;;29.00;21.58;;;;;;;;;;6248114;23;20493;-83
2022/01/01 14:01:07;;;;;;;26.75;20.98;;;;;;;;;;6248248;23;20079;-82
2022/01/01 14:03:33;;;;;;;27.77;21.85;;;;;;;;;;6248052;23;20007;-84
2022/01/01 14:05:59;;;;;;;28.92;21.38;;;;;;;;;;6248147;23;19996;-83
2022/01/01 14:08:25;;;;;;;27.02;20.98;;;;;;;;;;6248155;23;20004;-82
2022/01/01 14:10:53;;;;;;;28.83;20.92;;;;;;;;;;6247821;23;20004;-83
2022/01/01 14:13:45;;;;;;;28.30;21.40;;;;;;;;;;6220941;23;20493;-82
2022/01/01 14:16:20;;;;;;;27.05;21.52;;;;;;;;;;6216428;23;20332;-83
2022/01/01 14:18:47;;;;;;;28.92;21.63;;;;;;;;;;6247736;23;20411;-83
2022/01/01 14:21:13;;;;;;;29.52;23.00;;;;;;;;;;6250589;23;20010;-83
2022/01/01 14:23:40;;;;;;;29.52;22.10;;;;;;;;;;6250197;23;20386;-84
2022/01/01 14:26:07;;;;;;;28.92;22.25;;;;;;;;;;6248073;23;20442;-83
2022/01/01 14:28:34;;;;;;;28.45;22.45;;;;;;;;;;6247977;23;20004;-84
2022/01/01 14:31:01;;;;;;;31.23;23.02;;;;;;;;;;6247683;23;20012;-86
2022/01/01 14:33:28;;;;;;;28.95;22.08;;;;;;;;;;6247733;23;20012;-82
2022/01/01 14:36:23;;;;;;;30.52;23.83;;;;;;;;;;6247223;23;20004;-82
2022/01/01 14:38:49;;;;;;;32.45;24.10;;;;;;;;;;6221847;23;20062;-83
2022/01/01 14:41:17;;;;;;;30.48;22.92;;;;;;;;;;6247310;23;20010;-82
2022/01/01 14:43:43;;;;;;;28.73;21.85;;;;;;;;;;6220777;23;20474;-82
2022/01/01 14:46:10;;;;;;;30.10;22.92;;;;;;;;;;6247317;23;20000;-82
2022/01/01 14:48:45;;;;;;;32.72;24.10;;;;;;;;;;6220991;23;20011;-82
2022/01/01 14:51:13;;;;;;;34.00;25.80;;;;;;;;;;6247483;23;20004;-84
2022/01/01 14:53:54;;;;;;;40.10;29.40;;;;;;;;;;6223809;23;20008;-82
2022/01/01 14:56:25;;;;;;;36.63;27.60;;;;;;;;;;6247277;23;20000;-84
2022/01/01 14:59:04;;;;;;;36.03;24.38;;;;;;;;;;6247418;23;20007;-82
2022/01/01 15:01:31;;;;;;;33.17;24.48;;;;;;;;;;6247465;23;20000;-82
2022/01/01 15:03:56;;;;;;;33.42;24.13;;;;;;;;;;6247416;23;20007;-82
2022/01/01 15:06:24;;;;;;;36.90;26.67;;;;;;;;;;6247012;23;19992;-84
2022/01/01 15:08:54;;;;;;;32.13;23.70;;;;;;;;;;6220617;23;20375;-82
2022/01/01 15:11:19;;;;;;;33.72;25.77;;;;;;;;;;6220457;23;20317;-82
2022/01/01 15:13:48;;;;;;;37.67;27.63;;;;;;;;;;6220328;23;20036;-83
2022/01/01 15:16:14;;;;;;;36.38;26.17;;;;;;;;;;6247599;23;20003;-83
2022/01/01 15:18:40;;;;;;;32.40;23.52;;;;;;;;;;6220437;23;20000;-82
2022/01/01 15:21:09;;;;;;;35.83;24.25;;;;;;;;;;6247342;23;20054;-83
2022/01/01 15:23:43;;;;;;;34.80;23.92;;;;;;;;;;6247276;23;20007;-83
2022/01/01 15:26:11;;;;;;;37.22;25.17;;;;;;;;;;6247243;23;20000;-83
2022/01/01 15:28:37;;;;;;;35.17;25.55;;;;;;;;;;6247320;23;19996;-83
2022/01/01 15:31:12;;;;;;;36.67;25.52;;;;;;;;;;6247359;23;20004;-83
2022/01/01 15:33:42;;;;;;;35.30;24.42;;;;;;;;;;6247292;23;20414;-82
2022/01/01 15:36:20;;;;;;;36.50;25.53;;;;;;;;;;6247395;23;20004;-83
2022/01/01 15:38:50;;;;;;;36.85;25.65;;;;;;;;;;6246876;23;20542;-83
2022/01/01 15:43:43;;;;;;;39.35;27.45;;;;;;;;;;6257294;23;20007;-83
2022/01/01 15:46:09;;;;;;;38.42;26.45;;;;;;;;;;6220236;23;20137;-81
2022/01/01 15:48:34;;;;;;;37.85;26.95;;;;;;;;;;6247078;23;20341;-80
2022/01/01 15:51:03;;;;;;;38.45;25.88;;;;;;;;;;6246558;23;20030;-80
2022/01/01 15:53:39;;;;;;;41.83;28.38;;;;;;;;;;6246719;23;20063;-86
2022/01/01 15:56:04;;;;;;;47.70;30.58;;;;;;;;;;6246809;23;20050;-83
2022/01/01 15:58:51;;;;;;;44.40;29.65;;;;;;;;;;6246710;23;20004;-85
2022/01/01 16:01:33;;;;;;;39.88;26.25;;;;;;;;;;6219904;23;20323;-83
2022/01/01 16:04:11;;;;;;;43.60;27.38;;;;;;;;;;6219868;23;20014;-84
2022/01/01 16:06:38;;;;;;;37.53;24.85;;;;;;;;;;6246780;23;20015;-84
2022/01/01 16:09:06;;;;;;;38.45;25.08;;;;;;;;;;6219907;23;20441;-84
2022/01/01 16:11:39;;;;;;;37.25;24.85;;;;;;;;;;6219867;23;20336;-84
2022/01/01 16:57:26;;;;;;;35.60;25.38;;;;;;;;;;6219560;22;19998;-84
2022/01/01 16:59:59;;;;;;;37.50;25.75;;;;;;;;;;6218063;23;20403;-83
2022/01/01 17:02:31;;;;;;;36.45;23.50;;;;;;;;;;6235608;22;20016;-84
2022/01/01 17:05:08;;;;;;;37.45;25.30;;;;;;;;;;6215446;23;20001;-85
2022/01/01 17:07:40;;;;;;;36.38;24.65;;;;;;;;;;6214575;23;20000;-85
2022/01/01 17:10:12;;;;;;;36.00;24.90;;;;;;;;;;6215966;23;20080;-85
2022/01/01 17:12:39;;;;;;;38.05;24.42;;;;;;;;;;6215094;23;20442;-85
2022/01/01 17:15:06;;;;;;;36.20;24.13;;;;;;;;;;6216347;23;20005;-85
2022/01/01 17:17:42;;;;;;;36.78;23.88;;;;;;;;;;6216228;23;20428;-85
2022/01/01 17:20:16;;;;;;;36.25;23.80;;;;;;;;;;6216292;23;20001;-84
2022/01/01 17:22:52;;;;;;;33.05;23.65;;;;;;;;;;6215192;23;20013;-85
2022/01/01 17:25:29;;;;;;;33.85;24.13;;;;;;;;;;6216343;23;20023;-86
2022/01/01 17:28:10;;;;;;;38.05;25.17;;;;;;;;;;6216729;23;20001;-86
2022/01/01 17:30:41;;;;;;;34.97;23.33;;;;;;;;;;6214545;23;20043;-85
2022/01/01 17:33:20;;;;;;;36.90;24.40;;;;;;;;;;6214552;23;20031;-85
2022/01/01 17:41:43;;;;;;;37.35;24.35;;;;;;;;;;6216282;23;20415;-85
2022/01/01 17:44:13;;;;;;;40.72;24.98;;;;;;;;;;6214807;23;20008;-85
2022/01/01 17:46:39;;;;;;;39.05;25.75;;;;;;;;;;6215412;23;20008;-85
2022/01/01 17:49:06;;;;;;;37.92;24.40;;;;;;;;;;6213729;23;20008;-85
2022/01/01 17:51:35;;;;;;;43.50;27.75;;;;;;;;;;6215385;23;20095;-87
2022/01/01 17:54:00;;;;;;;50.75;28.60;;;;;;;;;;6214521;23;20035;-85
2022/01/01 17:56:26;;;;;;;50.75;29.45;;;;;;;;;;6214349;23;20004;-85
2022/01/01 17:58:53;;;;;;;45.67;28.30;;;;;;;;;;6214311;23;20000;-85
2022/01/01 18:01:18;;;;;;;51.25;30.45;;;;;;;;;;6215746;23;20005;-85
2022/01/01 18:03:45;;;;;;;47.58;29.55;;;;;;;;;;6214279;23;20095;-85
2022/01/01 18:06:15;;;;;;;49.15;31.40;;;;;;;;;;6214091;23;20008;-85
2022/01/01 18:08:48;;;;;;;44.38;28.60;;;;;;;;;;6214604;23;20005;-85
2022/01/01 18:11:18;;;;;;;41.70;27.90;;;;;;;;;;6215930;23;20011;-85
2022/01/01 18:13:52;;;;;;;39.35;26.90;;;;;;;;;;6216126;23;20031;-85
2022/01/01 18:16:22;;;;;;;39.65;26.48;;;;;;;;;;6215891;23;20328;-84
2022/01/01 18:18:49;;;;;;;41.83;27.20;;;;;;;;;;6217435;23;20004;-84
2022/01/01 18:21:16;;;;;;;37.75;27.15;;;;;;;;;;6215863;23;20320;-84
2022/01/01 18:23:52;;;;;;;37.88;26.17;;;;;;;;;;6216192;23;20495;-85
2022/01/01 18:26:22;;;;;;;43.45;27.67;;;;;;;;;;6215764;23;20004;-84
2022/01/01 18:28:47;;;;;;;40.05;27.13;;;;;;;;;;6215887;23;20008;-83
2022/01/01 18:31:13;;;;;;;41.47;26.58;;;;;;;;;;6217327;23;20004;-84
2022/01/01 18:33:44;;;;;;;38.13;26.77;;;;;;;;;;6215966;23;20011;-86
2022/01/01 18:36:12;;;;;;;38.92;26.20;;;;;;;;;;6216314;23;20001;-86
2022/01/01 18:38:37;;;;;;;40.22;27.77;;;;;;;;;;6217421;23;20055;-86
2022/01/01 18:41:04;;;;;;;35.28;24.35;;;;;;;;;;6216194;23;20419;-85
2022/01/01 18:43:31;;;;;;;35.22;24.42;;;;;;;;;;6217402;23;20416;-87
2022/01/01 18:45:57;;;;;;;32.72;23.25;;;;;;;;;;6215848;23;20008;-87
2022/01/01 18:48:23;;;;;;;32.13;22.83;;;;;;;;;;6217524;23;20001;-86
2022/01/01 18:51:04;;;;;;;32.05;22.75;;;;;;;;;;6217186;23;20008;-86
2022/01/01 18:53:32;;;;;;;31.70;22.73;;;;;;;;;;6216262;23;20011;-85
2022/01/01 18:56:04;;;;;;;31.25;22.40;;;;;;;;;;6215811;23;20004;-86
2022/01/01 18:58:37;;;;;;;32.53;23.45;;;;;;;;;;6217104;23;20079;-87
2022/01/01 19:01:03;;;;;;;31.83;24.17;;;;;;;;;;6217417;23;20032;-85
2022/01/01 19:03:31;;;;;;;30.45;22.58;;;;;;;;;;6215610;23;20020;-87
2022/01/01 19:06:05;;;;;;;30.88;22.63;;;;;;;;;;6216076;23;20047;-85
2022/01/01 19:08:39;;;;;;;34.63;24.73;;;;;;;;;;6223764;23;20030;-84
2022/01/01 19:11:12;;;;;;;38.20;25.67;;;;;;;;;;6224805;23;20008;-85
2022/01/01 19:13:44;;;;;;;37.70;28.38;;;;;;;;;;6218071;23;20019;-85
2022/01/01 19:16:13;;;;;;;37.70;27.10;;;;;;;;;;6217592;23;20007;-87
2022/01/01 19:18:38;;;;;;;37.33;29.00;;;;;;;;;;6216784;23;20004;-86
2022/01/01 19:21:10;;;;;;;37.47;27.58;;;;;;;;;;6220159;23;20427;-85
2022/01/01 19:23:35;;;;;;;40.70;28.23;;;;;;;;;;6222983;23;20009;-85
2022/01/01 19:26:02;;;;;;;39.25;27.38;;;;;;;;;;6222575;23;20424;-88
2022/01/01 19:28:33;;;;;;;35.83;26.75;;;;;;;;;;6226489;23;20024;-87
2022/01/01 19:31:00;;;;;;;38.08;27.35;;;;;;;;;;6225499;23;20011;-85
2022/01/01 19:33:31;;;;;;;39.35;27.50;;;;;;;;;;6223998;23;20066;-87
2022/01/01 19:36:00;;;;;;;33.95;24.73;;;;;;;;;;6225190;23;20001;-88
2022/01/01 19:38:29;;;;;;;34.78;24.30;;;;;;;;;;6223246;23;20027;-87
2022/01/01 19:41:04;;;;;;;37.65;26.17;;;;;;;;;;6217864;23;20042;-87
2022/01/01 19:43:46;;;;;;;25.48;18.75;;;;;;;;;;6216764;23;20073;-87
2022/01/01 19:46:17;;;;;;;16.38;10.60;;;;;;;;;;6216683;23;20038;-88
2022/01/01 19:48:45;;;;;;;17.42;13.15;;;;;;;;;;6216050;23;20424;-87
2022/01/01 19:51:10;;;;;;;20.08;14.43;;;;;;;;;;6215824;23;20364;-87
2022/01/01 19:53:36;;;;;;;19.60;13.25;;;;;;;;;;6215394;23;20004;-87
2022/01/01 19:56:03;;;;;;;19.23;14.15;;;;;;;;;;6215915;23;20424;-86
2022/01/01 19:58:30;;;;;;;23.35;17.38;;;;;;;;;;6215983;23;20059;-88
2022/01/01 20:00:55;;;;;;;23.35;16.55;;;;;;;;;;6216260;23;20016;-88
2022/01/01 20:03:24;;;;;;;23.77;15.68;;;;;;;;;;6216926;23;20013;-86
2022/01/01 20:05:49;;;;;;;20.77;15.48;;;;;;;;;;6215800;23;20005;-87
2022/01/01 20:08:15;;;;;;;21.55;14.45;;;;;;;;;;6215557;23;20039;-86
2022/01/01 20:10:40;;;;;;;30.60;18.20;;;;;;;;;;6217140;23;20011;-86
2022/01/01 20:13:06;;;;;;;27.90;16.48;;;;;;;;;;6215624;23;20340;-86
2022/01/01 20:15:31;;;;;;;29.40;18.30;;;;;;;;;;6215226;23;20011;-87
2022/01/01 20:17:57;;;;;;;22.10;17.13;;;;;;;;;;6216496;23;20055;-86
2022/01/01 20:20:24;;;;;;;20.13;15.77;;;;;;;;;;6216650;23;20015;-87
2022/01/01 20:22:51;;;;;;;16.98;13.35;;;;;;;;;;6215106;23;20034;-86
2022/01/01 20:25:17;;;;;;;17.88;12.93;;;;;;;;;;6216007;23;20000;-86
2022/01/01 20:27:43;;;;;;;13.55;10.35;;;;;;;;;;6215084;23;20025;-85
2022/01/01 20:30:08;;;;;;;14.90;11.13;;;;;;;;;;6215337;23;20005;-85
2022/01/01 20:32:34;;;;;;;18.45;11.88;;;;;;;;;;6214546;23;20009;-85
2022/01/01 20:35:00;;;;;;;13.15;9.75;;;;;;;;;;6214241;23;20008;-87
2022/01/01 20:37:25;;;;;;;13.15;10.15;;;;;;;;;;6216120;23;20000;-85
2022/01/01 20:39:51;;;;;;;15.95;10.25;;;;;;;;;;6214721;23;20015;-84
2022/01/01 20:42:17;;;;;;;20.23;13.68;;;;;;;;;;6216138;23;20079;-86
2022/01/01 20:44:44;;;;;;;28.48;18.00;;;;;;;;;;6214636;23;20087;-87
2022/01/01 20:47:10;;;;;;;22.13;15.63;;;;;;;;;;6214689;23;20015;-87
2022/01/01 20:49:36;;;;;;;24.70;16.73;;;;;;;;;;6215125;23;20036;-87
2022/01/01 20:52:04;;;;;;;23.63;17.08;;;;;;;;;;6214880;23;20379;-87
2022/01/01 20:54:30;;;;;;;23.77;17.48;;;;;;;;;;6213809;23;20004;-86
2022/01/01 20:56:56;;;;;;;25.05;17.60;;;;;;;;;;6215925;23;20055;-85
2022/01/01 20:59:21;;;;;;;22.20;15.65;;;;;;;;;;6214825;23;19997;-88
2022/01/01 21:01:51;;;;;;;21.85;16.02;;;;;;;;;;6214331;23;20008;-87
2022/01/01 21:04:17;;;;;;;;;;;;;;;;;;6214788;23;20064;-89
2022/01/01 21:06:47;;;;;;;18.73;13.35;;;;;;;;;;6214665;23;20355;-87
2022/01/01 21:09:13;;;;;;;19.17;12.52;;;;;;;;;;6216651;23;20008;-86
2022/01/01 21:11:41;;;;;;;19.90;13.27;;;;;;;;;;6214691;23;20071;-86
2022/01/01 21:14:08;;;;;;;23.27;15.00;;;;;;;;;;6214552;23;20005;-87
2022/01/01 21:16:34;;;;;;;21.75;14.55;;;;;;;;;;6214948;23;20086;-88
2022/01/01 21:19:01;;;;;;;17.35;12.85;;;;;;;;;;6216145;23;19997;-86
2022/01/01 21:21:30;;;;;;;20.55;13.60;;;;;;;;;;6214498;23;20340;-89
2022/01/01 21:23:56;;;;;;;18.52;12.55;;;;;;;;;;6214668;23;20001;-88
2022/01/01 21:26:22;;;;;;;19.48;12.93;;;;;;;;;;6216557;23;20005;-88
2022/01/01 21:28:47;;;;;;;18.73;12.52;;;;;;;;;;6214793;23;20028;-88
2022/01/01 21:31:13;;;;;;;17.83;12.80;;;;;;;;;;6215029;23;20009;-91
2022/01/01 21:33:39;;;;;;;19.73;14.88;;;;;;;;;;6215021;23;20009;-86
2022/01/01 21:36:05;;;;;;;22.23;15.35;;;;;;;;;;6216152;23;20063;-91
2022/01/01 21:38:30;;;;;;;20.55;14.35;;;;;;;;;;6215067;23;20008;-90
2022/01/01 21:40:56;;;;;;;18.02;13.48;;;;;;;;;;6214797;23;20004;-89
2022/01/01 21:43:21;;;;;;;19.50;13.73;;;;;;;;;;6214684;23;20059;-89
2022/01/01 21:45:49;;;;;;;28.27;17.33;;;;;;;;;;6215905;23;20062;-89
2022/01/01 21:48:14;;;;;;;17.08;12.32;;;;;;;;;;6216849;23;19996;-88
2022/01/01 21:50:42;;;;;;;16.77;13.10;;;;;;;;;;6216997;23;20062;-88
2022/01/01 21:53:08;;;;;;;15.10;11.27;;;;;;;;;;6216710;23;20088;-88
2022/01/01 21:55:33;;;;;;;15.85;11.20;;;;;;;;;;6216642;23;20450;-89
2022/01/01 21:57:59;;;;;;;16.25;9.52;;;;;;;;;;6216659;23;20000;-90
2022/01/01 22:00:27;;;;;;;13.25;8.00;;;;;;;;;;6242271;23;20027;-88
2022/01/01 22:02:53;;;;;;;11.82;7.70;;;;;;;;;;6217035;23;20012;-90
2022/01/01 22:05:19;;;;;;;8.90;7.18;;;;;;;;;;6216791;23;20078;-89
2022/01/01 22:07:44;;;;;;;9.55;6.60;;;;;;;;;;6216195;23;20001;-87
2022/01/01 22:10:10;;;;;;;7.65;5.32;;;;;;;;;;6216135;23;20091;-89
2022/01/01 22:12:35;;;;;;;7.53;5.30;;;;;;;;;;6217435;23;20070;-87
2022/01/01 22:15:01;;;;;;;10.35;6.63;;;;;;;;;;6216084;23;19997;-88
2022/01/01 22:17:27;;;;;;;9.75;6.15;;;;;;;;;;6216543;23;20003;-89
2022/01/01 22:19:52;;;;;;;8.57;6.20;;;;;;;;;;6216439;23;20009;-89
2022/01/01 22:22:18;;;;;;;12.70;7.53;;;;;;;;;;6216355;23;20019;-88
